createdAt,value
2022-11-28T00:00:34.701Z,76.70
2022-11-28T00:03:22.457Z,78.03
2022-11-28T00:06:08.915Z,70.75
2022-11-28T00:08:55.553Z,68.38
2022-11-28T00:11:42.704Z,65.82
2022-11-28T00:14:28.465Z,66.40
2022-11-28T00:17:14.280Z,64.60
2022-11-28T00:20:00.266Z,65.93
2022-11-28T00:22:45.692Z,68.82
2022-11-28T00:25:31.205Z,64.75
2022-11-28T00:28:16.720Z,67.55
2022-11-28T00:31:04.296Z,59.28
2022-11-28T00:33:50.382Z,52.58
2022-11-28T00:36:36.198Z,54.60
2022-11-28T00:39:21.684Z,47.33
2022-11-28T00:42:07.064Z,51.35
2022-11-28T00:44:52.761Z,50.58
2022-11-28T00:47:38.395Z,45.95
2022-11-28T00:50:24.294Z,46.15
2022-11-28T00:53:10.332Z,44.50
2022-11-28T00:55:56.181Z,45.03
2022-11-28T00:58:42.809Z,43.65
2022-11-28T01:01:34.405Z,49.25
2022-11-28T01:04:19.972Z,49.53
2022-11-28T01:07:05.523Z,47.58
2022-11-28T01:09:51.055Z,49.53
2022-11-28T01:12:36.600Z,53.33
2022-11-28T01:15:22.433Z,52.08
2022-11-28T01:18:08.028Z,50.08
2022-11-28T01:20:53.939Z,52.58
2022-11-28T01:23:39.536Z,52.65
2022-11-28T01:26:28.032Z,50.97
2022-11-28T01:29:13.666Z,50.28
2022-11-28T01:31:59.359Z,54.38
2022-11-28T01:34:44.861Z,56.95
2022-11-28T01:37:30.955Z,48.33
2022-11-28T01:40:17.214Z,67.45
2022-11-28T01:43:03.079Z,49.30
2022-11-28T01:45:49.205Z,55.47
2022-11-28T01:48:39.757Z,46.60
2022-11-28T01:51:25.707Z,47.97
2022-11-28T01:54:13.052Z,49.10
2022-11-28T01:57:18.408Z,44.80
2022-11-28T02:00:04.304Z,48.53
2022-11-28T02:03:03.388Z,51.83
2022-11-28T02:05:50.580Z,49.20
2022-11-28T02:08:37.060Z,52.35
2022-11-28T02:11:31.864Z,47.80
2022-11-28T02:14:42.228Z,49.90
2022-11-28T02:17:54.788Z,47.88
2022-11-28T02:21:08.292Z,45.50
2022-11-28T02:24:12.536Z,47.78
2022-11-28T02:27:16.764Z,48.20
2022-11-28T02:30:05.527Z,45.05
2022-11-28T02:33:23.034Z,46.40
2022-11-28T02:36:12.590Z,44.25
2022-11-28T02:39:04.238Z,42.58
2022-11-28T02:41:58.191Z,38.72
2022-11-28T02:44:50.872Z,42.88
2022-11-28T02:47:40.924Z,43.47
2022-11-28T02:50:32.304Z,40.22
2022-11-28T02:53:22.646Z,45.25
2022-11-28T02:56:11.299Z,41.58
2022-11-28T02:58:57.073Z,42.70
2022-11-28T03:01:42.997Z,42.40
2022-11-28T03:04:59.266Z,41.17
2022-11-28T03:07:45.025Z,40.08
2022-11-28T03:10:45.624Z,36.00
2022-11-28T03:13:57.683Z,29.55
2022-11-28T03:17:13.286Z,26.60
2022-11-28T03:20:16.963Z,27.20
2022-11-28T03:25:59.540Z,23.17
2022-11-28T03:29:01.945Z,25.35
2022-11-28T03:32:09.793Z,24.73
2022-11-28T03:35:02.729Z,24.27
2022-11-28T03:37:53.908Z,23.15
2022-11-28T03:40:45.411Z,23.52
2022-11-28T03:43:39.400Z,25.08
2022-11-28T03:46:35.355Z,24.38
2022-11-28T03:49:29.374Z,22.80
2022-11-28T03:52:32.973Z,20.85
2022-11-28T03:58:23.282Z,21.88
2022-11-28T04:01:14.656Z,24.52
2022-11-28T04:04:03.593Z,25.73
2022-11-28T04:07:08.480Z,31.23
2022-11-28T04:10:03.016Z,31.02
2022-11-28T04:13:01.423Z,31.98
2022-11-28T04:16:08.641Z,31.33
2022-11-28T04:19:16.369Z,32.55
2022-11-28T04:22:22.597Z,27.52
2022-11-28T04:25:12.373Z,33.65
2022-11-28T04:28:04.154Z,29.92
2022-11-28T04:30:52.988Z,35.28
2022-11-28T04:33:43.132Z,32.58
2022-11-28T04:36:30.649Z,31.83
2022-11-28T04:39:19.785Z,34.92
2022-11-28T04:42:13.781Z,32.58
2022-11-28T04:45:18.060Z,36.90
2022-11-28T04:48:04.485Z,30.20
2022-11-28T04:51:03.818Z,33.88
2022-11-28T04:54:06.323Z,36.47
2022-11-28T04:57:07.724Z,35.30
2022-11-28T04:59:55.099Z,36.42
2022-11-28T05:02:43.143Z,32.58
2022-11-28T05:05:30.352Z,32.58
2022-11-28T05:08:17.278Z,32.30
2022-11-28T05:11:02.935Z,39.47
2022-11-28T05:13:49.246Z,35.35
2022-11-28T05:16:35.472Z,41.03
2022-11-28T05:19:21.433Z,36.28
2022-11-28T05:22:06.991Z,43.38
2022-11-28T05:24:52.729Z,37.67
2022-11-28T05:27:38.548Z,41.45
2022-11-28T05:30:24.097Z,45.10
2022-11-28T05:33:09.662Z,41.17
2022-11-28T05:35:56.874Z,42.00
2022-11-28T05:38:43.303Z,39.58
2022-11-28T05:41:31.194Z,37.85
2022-11-28T05:44:17.112Z,43.20
2022-11-28T05:47:02.685Z,40.75
2022-11-28T05:49:48.485Z,46.38
2022-11-28T05:52:34.088Z,49.40
2022-11-28T05:55:19.492Z,48.00
2022-11-28T05:58:05.343Z,56.05
2022-11-28T06:00:50.633Z,50.22
2022-11-28T06:03:36.472Z,48.50
2022-11-28T06:06:22.596Z,46.72
2022-11-28T06:09:08.289Z,47.92
2022-11-28T06:11:54.272Z,59.60
2022-11-28T06:14:39.727Z,54.63
2022-11-28T06:17:25.315Z,55.83
2022-11-28T06:20:10.977Z,52.95
2022-11-28T06:22:56.328Z,52.13
2022-11-28T06:25:42.117Z,60.00
2022-11-28T06:28:27.624Z,51.00
2022-11-28T06:31:19.295Z,53.40
2022-11-28T06:34:05.002Z,62.72
2022-11-28T06:36:50.681Z,63.95
2022-11-28T06:39:36.659Z,60.05
2022-11-28T06:42:28.408Z,65.85
2022-11-28T06:45:14.185Z,63.10
2022-11-28T06:48:00.477Z,64.70
2022-11-28T06:50:45.802Z,65.47
2022-11-28T06:53:31.975Z,71.95
2022-11-28T06:56:20.077Z,68.78
2022-11-28T06:59:05.539Z,70.30
2022-11-28T07:02:07.277Z,76.65
2022-11-28T07:04:53.535Z,83.88
2022-11-28T07:07:53.018Z,78.10
2022-11-28T07:10:39.643Z,82.93
2022-11-28T07:13:25.652Z,73.53
2022-11-28T07:16:22.354Z,71.93
2022-11-28T07:19:08.188Z,66.75
2022-11-28T07:21:53.924Z,68.10
2022-11-28T07:24:39.327Z,72.05
2022-11-28T07:27:25.340Z,61.88
2022-11-28T07:30:11.194Z,64.55
2022-11-28T07:32:56.815Z,61.55
2022-11-28T07:35:42.956Z,65.88
2022-11-28T07:38:28.803Z,75.32
2022-11-28T07:41:15.211Z,66.30
2022-11-28T07:44:02.404Z,65.15
2022-11-28T07:46:48.234Z,66.18
2022-11-28T07:49:34.057Z,69.88
2022-11-28T07:52:19.929Z,67.35
2022-11-28T07:55:06.272Z,67.28
2022-11-28T07:57:51.945Z,63.15
2022-11-28T08:00:37.508Z,75.93
2022-11-28T08:03:23.169Z,67.10
2022-11-28T08:06:09.182Z,68.43
2022-11-28T08:08:56.275Z,64.57
2022-11-28T08:11:42.941Z,68.32
2022-11-28T08:14:28.568Z,66.22
2022-11-28T08:17:14.343Z,59.35
2022-11-28T08:20:00.100Z,66.95
2022-11-28T08:22:45.721Z,63.65
2022-11-28T08:25:31.315Z,67.65
2022-11-28T08:28:17.086Z,63.78
2022-11-28T08:31:25.573Z,61.72
2022-11-28T08:34:12.636Z,52.40
2022-11-28T08:36:58.433Z,54.47
2022-11-28T08:39:44.316Z,55.78
2022-11-28T08:42:30.444Z,61.50
2022-11-28T08:45:16.163Z,66.03
2022-11-28T08:48:01.960Z,71.78
2022-11-28T08:50:48.729Z,70.88
2022-11-28T08:53:34.417Z,70.43
2022-11-28T08:56:19.952Z,70.05
2022-11-28T08:59:07.116Z,71.75
2022-11-28T09:01:53.907Z,70.78
2022-11-28T09:04:39.477Z,73.53
2022-11-28T09:07:25.223Z,72.18
2022-11-28T09:10:11.321Z,74.25
2022-11-28T09:12:57.255Z,73.60
2022-11-28T09:15:44.902Z,71.50
2022-11-28T09:18:32.017Z,72.97
2022-11-28T09:21:17.371Z,71.93
2022-11-28T09:24:03.521Z,70.80
2022-11-28T09:26:49.114Z,75.53
2022-11-28T09:29:34.623Z,80.93
2022-11-28T09:32:20.145Z,79.35
2022-11-28T09:35:06.235Z,81.30
2022-11-28T09:37:51.914Z,77.03
2022-11-28T09:40:42.159Z,72.35
2022-11-28T09:43:42.707Z,79.13
2022-11-28T09:46:33.971Z,73.95
2022-11-28T09:49:36.807Z,76.82
2022-11-28T09:53:04.611Z,74.63
2022-11-28T09:55:53.998Z,80.47
2022-11-28T09:58:55.473Z,77.72
2022-11-28T10:02:05.494Z,84.63
2022-11-28T10:04:54.074Z,79.65
2022-11-28T10:07:54.628Z,81.95
2022-11-28T10:10:52.698Z,86.50
2022-11-28T10:14:17.072Z,91.13
2022-11-28T10:20:17.164Z,83.72
2022-11-28T10:23:18.271Z,82.35
2022-11-28T10:26:12.581Z,88.53
2022-11-28T10:29:01.661Z,83.50
2022-11-28T10:31:50.250Z,86.50
2022-11-28T10:34:42.226Z,87.30
2022-11-28T10:37:30.832Z,83.03
2022-11-28T10:40:31.742Z,95.70
2022-11-28T10:43:24.908Z,84.82
2022-11-28T10:49:37.454Z,84.65
2022-11-28T10:52:39.276Z,79.65
2022-11-28T10:56:00.276Z,81.80
2022-11-28T10:59:19.032Z,97.82
2022-11-28T11:02:40.208Z,97.20
2022-11-28T11:05:28.881Z,97.72
2022-11-28T11:08:35.852Z,102.85
2022-11-28T11:11:35.261Z,93.57
2022-11-28T11:14:39.950Z,100.20
2022-11-28T11:17:37.888Z,89.30
2022-11-28T11:20:23.495Z,93.20
2022-11-28T11:23:21.941Z,94.93
2022-11-28T11:26:11.237Z,97.35
2022-11-28T11:28:56.747Z,101.20
2022-11-28T11:31:44.855Z,102.72
2022-11-28T11:34:38.032Z,90.90
2022-11-28T11:37:34.489Z,88.57
2022-11-28T11:40:20.704Z,107.13
2022-11-28T11:43:21.645Z,96.30
2022-11-28T11:46:10.189Z,102.57
2022-11-28T11:48:55.790Z,96.10
2022-11-28T11:51:41.658Z,100.05
2022-11-28T11:54:27.328Z,94.45
2022-11-28T11:57:33.097Z,105.35
2022-11-28T12:00:38.303Z,103.35
2022-11-28T12:03:24.447Z,95.43
2022-11-28T12:06:23.656Z,103.70
2022-11-28T12:09:43.385Z,101.18
2022-11-28T12:12:31.190Z,107.05
2022-11-28T12:15:23.786Z,103.03
2022-11-28T12:18:28.597Z,96.40
2022-11-28T12:21:31.356Z,100.45
2022-11-28T12:24:28.792Z,102.17
2022-11-28T12:27:20.663Z,101.47
2022-11-28T12:30:24.558Z,99.25
2022-11-28T12:36:28.908Z,90.38
2022-11-28T12:39:23.461Z,102.78
2022-11-28T12:42:46.489Z,110.18
2022-11-28T12:46:18.388Z,99.18
2022-11-28T12:49:28.750Z,98.65
2022-11-28T12:52:20.091Z,98.00
2022-11-28T12:55:35.555Z,92.53
2022-11-28T12:58:33.747Z,93.72
2022-11-28T13:01:28.578Z,99.15
2022-11-28T13:04:39.562Z,97.57
2022-11-28T13:07:46.737Z,99.28
2022-11-28T13:10:44.422Z,96.05
2022-11-28T13:13:37.657Z,107.93
2022-11-28T13:16:51.480Z,100.55
2022-11-28T13:20:15.478Z,99.68
2022-11-28T13:23:26.543Z,100.07
2022-11-28T13:26:44.716Z,105.72
2022-11-28T13:29:41.649Z,106.63
2022-11-28T13:32:39.772Z,113.82
2022-11-28T13:35:27.623Z,115.38
2022-11-28T13:39:11.218Z,118.88
2022-11-28T13:45:32.403Z,106.28
2022-11-28T13:52:09.725Z,110.68
2022-11-28T13:54:55.803Z,112.43
2022-11-28T13:57:41.406Z,107.68
2022-11-28T14:00:27.955Z,107.70
2022-11-28T14:03:22.760Z,106.38
2022-11-28T14:06:09.205Z,97.25
2022-11-28T14:09:08.629Z,102.35
2022-11-28T14:12:15.504Z,105.03
2022-11-28T14:15:15.167Z,108.55
2022-11-28T14:18:54.353Z,109.80
2022-11-28T14:21:38.620Z,112.85
2022-11-28T14:25:02.003Z,111.10
2022-11-28T14:27:54.572Z,111.90
2022-11-28T14:30:45.320Z,108.50
2022-11-28T14:33:42.350Z,105.55
2022-11-28T14:36:34.382Z,108.30
2022-11-28T14:39:33.399Z,107.75
2022-11-28T14:42:58.911Z,113.90
2022-11-28T14:45:42.301Z,118.93
2022-11-28T14:48:30.341Z,125.32
2022-11-28T14:51:17.341Z,126.63
2022-11-28T14:54:03.244Z,113.82
2022-11-28T14:56:55.270Z,119.00
2022-11-28T14:59:47.029Z,115.53
2022-11-28T15:03:03.809Z,122.07
2022-11-28T15:05:59.785Z,122.07
2022-11-28T15:09:07.146Z,117.32
2022-11-28T15:12:02.578Z,114.22
2022-11-28T15:14:53.676Z,112.10
2022-11-28T15:17:41.681Z,113.95
2022-11-28T15:20:38.841Z,114.78
2022-11-28T15:23:28.965Z,118.00
2022-11-28T15:26:28.127Z,118.55
2022-11-28T15:29:26.355Z,109.13
2022-11-28T15:32:13.756Z,597.97
2022-11-28T15:35:10.863Z,123.30
2022-11-28T15:37:58.724Z,121.88
2022-11-28T15:40:50.634Z,134.15
2022-11-28T15:43:43.968Z,108.07
2022-11-28T15:46:33.364Z,117.25
2022-11-28T15:49:31.464Z,117.15
2022-11-28T15:52:21.121Z,118.03
2022-11-28T15:55:27.435Z,116.45
2022-11-28T15:58:21.008Z,128.05
2022-11-28T16:01:22.034Z,116.85
2022-11-28T16:04:17.313Z,120.63
2022-11-28T16:07:03.907Z,127.78
2022-11-28T16:10:17.280Z,128.63
2022-11-28T16:13:14.200Z,127.20
2022-11-28T16:16:03.940Z,128.02
2022-11-28T16:19:06.401Z,124.25
2022-11-28T16:21:59.870Z,124.97
2022-11-28T16:24:47.262Z,127.13
2022-11-28T16:27:38.921Z,126.00
2022-11-28T16:30:34.653Z,125.93
2022-11-28T16:33:41.715Z,132.70
2022-11-28T16:36:33.895Z,125.65
2022-11-28T16:39:19.573Z,136.25
2022-11-28T16:42:17.374Z,123.50
2022-11-28T16:45:21.989Z,132.10
2022-11-28T16:48:16.555Z,133.98
2022-11-28T16:51:22.290Z,132.50
2022-11-28T16:54:29.852Z,123.00
2022-11-28T16:57:16.437Z,138.25
2022-11-28T17:00:02.267Z,130.45
2022-11-28T17:02:52.949Z,130.48
2022-11-28T17:05:38.385Z,131.77
2022-11-28T17:08:30.183Z,130.52
2022-11-28T17:11:18.666Z,124.85
2022-11-28T17:14:10.082Z,127.45
2022-11-28T17:17:00.900Z,130.70
2022-11-28T17:19:47.286Z,133.25
2022-11-28T17:22:45.302Z,132.60
2022-11-28T17:25:31.054Z,135.30
2022-11-28T17:28:21.489Z,121.20
2022-11-28T17:31:14.657Z,138.48
2022-11-28T17:34:00.504Z,136.13
2022-11-28T17:36:46.701Z,128.68
2022-11-28T17:39:32.333Z,125.28
2022-11-28T17:42:18.100Z,131.93
2022-11-28T17:45:14.913Z,129.75
2022-11-28T17:48:01.884Z,122.43
2022-11-28T17:50:50.555Z,123.03
2022-11-28T17:53:37.120Z,125.47
2022-11-28T17:56:23.208Z,132.50
2022-11-28T17:59:11.825Z,123.00
2022-11-28T18:01:57.736Z,125.60
2022-11-28T18:04:43.928Z,126.82
2022-11-28T18:07:29.980Z,123.70
2022-11-28T18:10:15.981Z,129.07
2022-11-28T18:13:02.375Z,138.75
2022-11-28T18:15:52.988Z,115.45
2022-11-28T18:18:39.515Z,116.57
2022-11-28T18:21:26.810Z,130.55
2022-11-28T18:24:12.395Z,123.55
2022-11-28T18:26:57.823Z,118.20
2022-11-28T18:29:44.042Z,116.78
2022-11-28T18:32:30.172Z,120.85
2022-11-28T18:35:16.154Z,126.47
2022-11-28T18:38:02.385Z,118.43
2022-11-28T18:40:47.967Z,138.32
2022-11-28T18:43:34.344Z,121.65
2022-11-28T18:46:20.559Z,125.10
2022-11-28T18:49:08.301Z,126.85
2022-11-28T18:51:56.391Z,116.30
2022-11-28T18:54:42.420Z,114.20
2022-11-28T18:57:32.524Z,118.43
2022-11-28T19:00:18.815Z,120.35
2022-11-28T19:03:04.428Z,124.40
2022-11-28T19:05:50.161Z,114.53
2022-11-28T19:08:37.272Z,111.45
2022-11-28T19:11:23.423Z,116.13
2022-11-28T19:14:16.212Z,117.28
2022-11-28T19:17:02.447Z,124.88
2022-11-28T19:19:49.393Z,117.78
2022-11-28T19:22:36.148Z,122.60
2022-11-28T19:25:21.828Z,124.05
2022-11-28T19:28:08.023Z,132.35
2022-11-28T19:30:53.865Z,121.50
2022-11-28T19:33:40.527Z,119.85
2022-11-28T19:36:27.846Z,119.45
2022-11-28T19:39:17.327Z,121.68
2022-11-28T19:42:03.804Z,122.35
2022-11-28T19:44:49.896Z,118.38
2022-11-28T19:47:36.468Z,122.65
2022-11-28T19:50:22.498Z,126.78
2022-11-28T19:53:09.045Z,119.85
2022-11-28T19:55:55.381Z,121.25
2022-11-28T19:58:43.102Z,124.82
2022-11-28T20:01:28.742Z,118.55
2022-11-28T20:04:15.013Z,120.78
2022-11-28T20:07:01.644Z,122.95
2022-11-28T20:09:48.693Z,126.53
2022-11-28T20:12:34.912Z,121.10
2022-11-28T20:15:22.236Z,132.15
2022-11-28T20:18:08.157Z,126.18
2022-11-28T20:20:54.575Z,130.00
2022-11-28T20:23:49.137Z,122.18
2022-11-28T20:26:40.779Z,125.72
2022-11-28T20:29:28.587Z,123.57
2022-11-28T20:32:14.359Z,128.07
2022-11-28T20:35:01.287Z,132.13
2022-11-28T20:37:46.925Z,132.30
2022-11-28T20:40:32.392Z,130.23
2022-11-28T20:43:18.175Z,127.13
2022-11-28T20:46:05.441Z,127.88
2022-11-28T20:48:51.251Z,126.05
2022-11-28T20:51:36.797Z,128.95
2022-11-28T20:54:22.532Z,124.70
2022-11-28T20:57:23.466Z,128.25
2022-11-28T21:00:09.872Z,141.95
2022-11-28T21:02:55.687Z,133.68
2022-11-28T21:05:41.325Z,146.10
2022-11-28T21:08:30.310Z,143.38
2022-11-28T21:11:43.824Z,138.27
2022-11-28T21:14:28.749Z,147.32
2022-11-28T21:17:14.149Z,141.65
2022-11-28T21:19:59.728Z,136.13
2022-11-28T21:22:45.396Z,141.90
2022-11-28T21:25:30.880Z,156.52
2022-11-28T21:28:16.610Z,151.30
2022-11-28T21:31:06.516Z,142.02
2022-11-28T21:33:57.218Z,131.98
2022-11-28T21:36:43.148Z,132.77
2022-11-28T21:39:28.747Z,133.32
2022-11-28T21:42:20.188Z,132.75
2022-11-28T21:45:06.741Z,120.43
2022-11-28T21:47:52.450Z,113.68
2022-11-28T21:50:38.032Z,119.95
2022-11-28T21:53:23.769Z,111.28
2022-11-28T21:56:09.656Z,123.68
2022-11-28T21:58:55.313Z,126.38
2022-11-28T22:01:43.233Z,130.30
2022-11-28T22:04:28.849Z,126.93
2022-11-28T22:07:14.973Z,124.38
2022-11-28T22:10:01.014Z,126.50
2022-11-28T22:12:47.284Z,119.97
2022-11-28T22:15:32.725Z,122.80
2022-11-28T22:18:18.351Z,119.07
2022-11-28T22:21:28.559Z,119.95
2022-11-28T22:24:12.775Z,124.15
2022-11-28T22:26:59.787Z,132.00
2022-11-28T22:29:46.800Z,139.75
2022-11-28T22:32:33.012Z,137.80
2022-11-28T22:35:18.715Z,130.95
2022-11-28T22:38:04.319Z,136.35
2022-11-28T22:40:49.903Z,127.53
2022-11-28T22:43:37.062Z,135.88
2022-11-28T22:46:23.345Z,143.73
2022-11-28T22:49:10.047Z,130.77
2022-11-28T22:51:57.014Z,140.07
2022-11-28T22:54:43.434Z,135.35
2022-11-28T22:57:30.308Z,137.93
2022-11-28T23:00:16.247Z,134.15
2022-11-28T23:03:02.290Z,141.93
2022-11-28T23:05:49.329Z,133.80
2022-11-28T23:08:37.193Z,126.88
2022-11-28T23:11:25.601Z,131.90
2022-11-28T23:14:13.943Z,140.07
2022-11-28T23:17:00.349Z,147.50
2022-11-28T23:19:48.747Z,138.05
2022-11-28T23:22:35.610Z,126.20
2022-11-28T23:25:21.705Z,120.00
2022-11-28T23:28:07.349Z,119.85
2022-11-28T23:30:53.029Z,115.22
2022-11-28T23:33:39.825Z,124.78
2022-11-28T23:36:35.676Z,117.07
2022-11-28T23:39:24.445Z,119.45
2022-11-28T23:42:09.944Z,117.18
2022-11-28T23:44:55.529Z,122.95
2022-11-28T23:47:41.101Z,117.53
2022-11-28T23:50:27.209Z,119.25
2022-11-28T23:53:12.914Z,134.23
2022-11-28T23:56:09.532Z,118.68
2022-11-28T23:58:56.214Z,118.85
